sensor_id;sensor_type;location;lat;lon;timestamp;pressure;altitude;pressure_sealevel;temperature;humidity
57086;BME280;42964;42.910;23.792;2023-08-30T00:01:22;96714.31;;;21.19;69.88
57086;BME280;42964;42.910;23.792;2023-08-30T00:06:21;96704.75;;;21.32;69.42
57086;BME280;42964;42.910;23.792;2023-08-30T00:11:20;96699.28;;;21.35;69.16
57086;BME280;42964;42.910;23.792;2023-08-30T00:16:19;96710.50;;;21.24;69.09
57086;BME280;42964;42.910;23.792;2023-08-30T00:21:18;96695.25;;;21.29;68.72
57086;BME280;42964;42.910;23.792;2023-08-30T00:26:17;96651.09;;;21.17;68.27
57086;BME280;42964;42.910;23.792;2023-08-30T00:31:15;96660.66;;;21.34;67.50
57086;BME280;42964;42.910;23.792;2023-08-30T00:36:14;96630.16;;;21.00;68.19
57086;BME280;42964;42.910;23.792;2023-08-30T00:41:15;96686.41;;;21.14;69.30
57086;BME280;42964;42.910;23.792;2023-08-30T00:46:15;96699.03;;;21.09;69.76
57086;BME280;42964;42.910;23.792;2023-08-30T00:51:14;96713.72;;;20.99;69.15
57086;BME280;42964;42.910;23.792;2023-08-30T00:56:14;96683.28;;;20.93;69.09
57086;BME280;42964;42.910;23.792;2023-08-30T01:01:15;96699.81;;;21.11;68.48
57086;BME280;42964;42.910;23.792;2023-08-30T01:06:14;96696.13;;;21.14;68.17
57086;BME280;42964;42.910;23.792;2023-08-30T01:11:18;96696.81;;;21.18;68.65
57086;BME280;42964;42.910;23.792;2023-08-30T01:16:18;96691.16;;;21.24;68.03
57086;BME280;42964;42.910;23.792;2023-08-30T01:22:29;96699.84;;;21.26;67.95
57086;BME280;42964;42.910;23.792;2023-08-30T01:27:09;96645.16;;;20.85;68.32
57086;BME280;42964;42.910;23.792;2023-08-30T01:32:09;96668.31;;;20.94;68.52
57086;BME280;42964;42.910;23.792;2023-08-30T01:37:08;96709.44;;;21.12;68.92
57086;BME280;42964;42.910;23.792;2023-08-30T01:42:08;96697.84;;;21.15;68.83
57086;BME280;42964;42.910;23.792;2023-08-30T01:47:08;96705.63;;;21.17;69.20
57086;BME280;42964;42.910;23.792;2023-08-30T01:52:07;96703.66;;;21.06;69.51
57086;BME280;42964;42.910;23.792;2023-08-30T01:57:07;96702.53;;;21.10;69.61
57086;BME280;42964;42.910;23.792;2023-08-30T02:02:06;96686.09;;;20.90;70.44
57086;BME280;42964;42.910;23.792;2023-08-30T02:07:16;96679.63;;;20.96;70.88
57086;BME280;42964;42.910;23.792;2023-08-30T02:12:18;96701.16;;;20.88;71.38
57086;BME280;42964;42.910;23.792;2023-08-30T02:17:19;96675.25;;;20.66;71.19
57086;BME280;42964;42.910;23.792;2023-08-30T02:22:19;96688.25;;;20.84;71.67
57086;BME280;42964;42.910;23.792;2023-08-30T02:27:18;96690.63;;;20.88;71.71
57086;BME280;42964;42.910;23.792;2023-08-30T02:32:17;96637.84;;;20.60;71.41
57086;BME280;42964;42.910;23.792;2023-08-30T02:37:19;96690.28;;;20.95;71.44
57086;BME280;42964;42.910;23.792;2023-08-30T02:42:18;96609.28;;;20.22;71.90
57086;BME280;42964;42.910;23.792;2023-08-30T02:47:17;96712.00;;;20.84;72.37
57086;BME280;42964;42.910;23.792;2023-08-30T02:52:17;96706.19;;;20.63;73.28
57086;BME280;42964;42.910;23.792;2023-08-30T02:57:17;96707.59;;;20.22;75.68
57086;BME280;42964;42.910;23.792;2023-08-30T03:02:16;96718.91;;;19.93;77.71
57086;BME280;42964;42.910;23.792;2023-08-30T03:07:15;96715.16;;;19.97;77.18
57086;BME280;42964;42.910;23.792;2023-08-30T03:12:14;96713.22;;;20.00;77.37
57086;BME280;42964;42.910;23.792;2023-08-30T03:17:13;96716.00;;;20.13;77.69
57086;BME280;42964;42.910;23.792;2023-08-30T03:22:12;96700.53;;;20.07;77.68
57086;BME280;42964;42.910;23.792;2023-08-30T03:27:11;96707.94;;;20.16;77.24
57086;BME280;42964;42.910;23.792;2023-08-30T03:32:13;96714.72;;;20.20;76.89
57086;BME280;42964;42.910;23.792;2023-08-30T03:37:15;96639.50;;;19.84;76.51
57086;BME280;42964;42.910;23.792;2023-08-30T03:42:14;96696.09;;;20.23;76.65
57086;BME280;42964;42.910;23.792;2023-08-30T03:47:13;96688.56;;;20.17;76.72
57086;BME280;42964;42.910;23.792;2023-08-30T03:52:12;96681.53;;;20.02;76.80
57086;BME280;42964;42.910;23.792;2023-08-30T03:57:11;96688.25;;;20.07;76.99
57086;BME280;42964;42.910;23.792;2023-08-30T04:02:10;96704.13;;;20.22;76.71
57086;BME280;42964;42.910;23.792;2023-08-30T04:07:09;96712.78;;;20.08;77.26
57086;BME280;42964;42.910;23.792;2023-08-30T04:12:08;96678.03;;;19.85;77.77
57086;BME280;42964;42.910;23.792;2023-08-30T04:17:07;96701.31;;;20.09;77.05
57086;BME280;42964;42.910;23.792;2023-08-30T04:22:06;96704.19;;;20.04;77.36
57086;BME280;42964;42.910;23.792;2023-08-30T04:27:05;96715.94;;;20.15;77.34
57086;BME280;42964;42.910;23.792;2023-08-30T04:32:04;96722.50;;;20.07;77.84
57086;BME280;42964;42.910;23.792;2023-08-30T04:37:03;96711.19;;;20.05;77.96
57086;BME280;42964;42.910;23.792;2023-08-30T04:42:02;96722.06;;;20.15;77.60
57086;BME280;42964;42.910;23.792;2023-08-30T04:47:02;96725.28;;;20.20;77.87
57086;BME280;42964;42.910;23.792;2023-08-30T04:52:01;96736.00;;;20.17;78.32
57086;BME280;42964;42.910;23.792;2023-08-30T04:57:00;96741.84;;;20.22;77.85
57086;BME280;42964;42.910;23.792;2023-08-30T05:01:59;96675.59;;;19.98;77.63
57086;BME280;42964;42.910;23.792;2023-08-30T05:06:58;96742.69;;;20.55;77.24
57086;BME280;42964;42.910;23.792;2023-08-30T05:11:57;96751.44;;;20.55;77.44
57086;BME280;42964;42.910;23.792;2023-08-30T05:16:56;96752.00;;;20.76;77.07
57086;BME280;42964;42.910;23.792;2023-08-30T05:21:55;96747.78;;;20.88;76.67
57086;BME280;42964;42.910;23.792;2023-08-30T05:26:54;96725.91;;;21.16;75.22
57086;BME280;42964;42.910;23.792;2023-08-30T05:31:54;96727.75;;;21.59;74.42
57086;BME280;42964;42.910;23.792;2023-08-30T05:36:52;96747.09;;;22.29;71.78
57086;BME280;42964;42.910;23.792;2023-08-30T05:41:51;96737.00;;;22.63;68.90
57086;BME280;42964;42.910;23.792;2023-08-30T05:46:51;96741.63;;;22.87;68.18
57086;BME280;42964;42.910;23.792;2023-08-30T05:51:50;96757.88;;;23.20;67.35
57086;BME280;42964;42.910;23.792;2023-08-30T05:56:49;96746.16;;;23.37;64.90
57086;BME280;42964;42.910;23.792;2023-08-30T06:01:48;96749.16;;;23.58;63.75
57086;BME280;42964;42.910;23.792;2023-08-30T06:06:47;96743.19;;;23.68;62.99
57086;BME280;42964;42.910;23.792;2023-08-30T06:11:45;96746.06;;;23.64;62.94
57086;BME280;42964;42.910;23.792;2023-08-30T06:16:44;96727.41;;;23.66;62.01
57086;BME280;42964;42.910;23.792;2023-08-30T06:21:44;96712.25;;;23.42;62.81
57086;BME280;42964;42.910;23.792;2023-08-30T06:26:43;96700.38;;;23.22;62.03
57086;BME280;42964;42.910;23.792;2023-08-30T06:31:42;96740.53;;;23.29;62.39
57086;BME280;42964;42.910;23.792;2023-08-30T06:36:41;96736.91;;;23.30;61.65
57086;BME280;42964;42.910;23.792;2023-08-30T06:41:40;96743.28;;;23.28;61.64
57086;BME280;42964;42.910;23.792;2023-08-30T06:46:39;96748.56;;;23.15;61.91
57086;BME280;42964;42.910;23.792;2023-08-30T06:51:38;96747.09;;;23.23;62.13
57086;BME280;42964;42.910;23.792;2023-08-30T06:56:37;96741.19;;;23.33;61.60
57086;BME280;42964;42.910;23.792;2023-08-30T07:01:36;96737.56;;;23.34;61.09
57086;BME280;42964;42.910;23.792;2023-08-30T07:06:35;96710.44;;;23.30;61.56
57086;BME280;42964;42.910;23.792;2023-08-30T07:11:34;96709.31;;;23.60;60.72
57086;BME280;42964;42.910;23.792;2023-08-30T07:16:33;96698.50;;;23.50;59.19
57086;BME280;42964;42.910;23.792;2023-08-30T07:21:32;96705.53;;;23.88;59.47
57086;BME280;42964;42.910;23.792;2023-08-30T07:26:31;96726.69;;;24.26;57.84
57086;BME280;42964;42.910;23.792;2023-08-30T07:31:34;96718.97;;;24.47;56.92
57086;BME280;42964;42.910;23.792;2023-08-30T07:36:33;96713.69;;;24.59;55.89
57086;BME280;42964;42.910;23.792;2023-08-30T07:41:36;96714.75;;;24.80;54.20
57086;BME280;42964;42.910;23.792;2023-08-30T07:46:35;96705.91;;;24.93;53.47
57086;BME280;42964;42.910;23.792;2023-08-30T07:51:34;96706.13;;;25.01;53.58
57086;BME280;42964;42.910;23.792;2023-08-30T07:56:33;96676.38;;;25.08;52.75
57086;BME280;42964;42.910;23.792;2023-08-30T08:01:32;96687.50;;;25.36;51.15
57086;BME280;42964;42.910;23.792;2023-08-30T08:06:31;96695.63;;;25.68;49.73
57086;BME280;42964;42.910;23.792;2023-08-30T08:11:29;96701.78;;;25.69;48.38
57086;BME280;42964;42.910;23.792;2023-08-30T08:16:29;96680.66;;;25.79;47.71
57086;BME280;42964;42.910;23.792;2023-08-30T08:21:28;96688.59;;;25.90;47.54
57086;BME280;42964;42.910;23.792;2023-08-30T08:26:27;96698.72;;;26.19;47.24
57086;BME280;42964;42.910;23.792;2023-08-30T08:31:26;96710.81;;;26.23;46.85
57086;BME280;42964;42.910;23.792;2023-08-30T08:36:26;96690.31;;;26.46;46.60
57086;BME280;42964;42.910;23.792;2023-08-30T08:41:34;96672.09;;;26.30;45.87
57086;BME280;42964;42.910;23.792;2023-08-30T08:46:35;96673.03;;;26.51;45.40
57086;BME280;42964;42.910;23.792;2023-08-30T08:51:36;96689.38;;;27.00;45.67
57086;BME280;42964;42.910;23.792;2023-08-30T08:56:36;96630.53;;;26.82;44.55
57086;BME280;42964;42.910;23.792;2023-08-30T09:01:36;96663.63;;;27.31;44.14
57086;BME280;42964;42.910;23.792;2023-08-30T09:06:38;96645.13;;;27.60;43.72
57086;BME280;42964;42.910;23.792;2023-08-30T09:11:42;96680.81;;;28.19;42.79
57086;BME280;42964;42.910;23.792;2023-08-30T09:16:41;96670.91;;;28.41;41.90
57086;BME280;42964;42.910;23.792;2023-08-30T09:21:53;96665.03;;;28.76;41.42
57086;BME280;42964;42.910;23.792;2023-08-30T09:26:54;96651.94;;;28.93;40.70
57086;BME280;42964;42.910;23.792;2023-08-30T09:31:53;96631.28;;;28.95;40.20
57086;BME280;42964;42.910;23.792;2023-08-30T09:36:53;96617.25;;;28.83;39.97
57086;BME280;42964;42.910;23.792;2023-08-30T09:41:53;96660.59;;;29.24;39.88
57086;BME280;42964;42.910;23.792;2023-08-30T09:46:53;96659.03;;;29.31;39.78
57086;BME280;42964;42.910;23.792;2023-08-30T09:51:53;96639.06;;;29.25;39.98
57086;BME280;42964;42.910;23.792;2023-08-30T09:56:53;96664.34;;;29.78;40.27
57086;BME280;42964;42.910;23.792;2023-08-30T10:01:54;96661.50;;;30.17;38.87
57086;BME280;42964;42.910;23.792;2023-08-30T10:06:55;96652.81;;;30.51;38.89
57086;BME280;42964;42.910;23.792;2023-08-30T10:11:58;96648.28;;;30.87;37.26
57086;BME280;42964;42.910;23.792;2023-08-30T10:17:01;96650.44;;;31.28;37.63
57086;BME280;42964;42.910;23.792;2023-08-30T10:22:03;96609.97;;;31.47;36.56
57086;BME280;42964;42.910;23.792;2023-08-30T10:27:15;96649.28;;;31.04;35.66
57086;BME280;42964;42.910;23.792;2023-08-30T10:32:20;96633.59;;;30.38;36.82
57086;BME280;42964;42.910;23.792;2023-08-30T10:37:23;96625.09;;;30.24;36.99
57086;BME280;42964;42.910;23.792;2023-08-30T10:42:23;96631.72;;;30.48;36.82
57086;BME280;42964;42.910;23.792;2023-08-30T10:47:35;96632.72;;;30.91;36.40
57086;BME280;42964;42.910;23.792;2023-08-30T10:52:36;96620.00;;;30.93;35.41
57086;BME280;42964;42.910;23.792;2023-08-30T10:57:36;96635.97;;;31.21;35.33
57086;BME280;42964;42.910;23.792;2023-08-30T11:02:36;96623.50;;;31.37;34.42
57086;BME280;42964;42.910;23.792;2023-08-30T11:07:36;96630.00;;;31.53;34.84
57086;BME280;42964;42.910;23.792;2023-08-30T11:12:35;96614.84;;;31.78;35.00
57086;BME280;42964;42.910;23.792;2023-08-30T11:17:34;96615.53;;;31.88;33.58
57086;BME280;42964;42.910;23.792;2023-08-30T11:22:42;96577.16;;;31.88;34.24
57086;BME280;42964;42.910;23.792;2023-08-30T11:27:41;96612.72;;;31.90;33.02
57086;BME280;42964;42.910;23.792;2023-08-30T11:32:41;96583.84;;;31.92;34.22
57086;BME280;42964;42.910;23.792;2023-08-30T11:37:43;96611.09;;;31.63;33.02
57086;BME280;42964;42.910;23.792;2023-08-30T11:42:43;96602.72;;;31.05;33.75
57086;BME280;42964;42.910;23.792;2023-08-30T11:47:42;96593.00;;;30.86;34.31
57086;BME280;42964;42.910;23.792;2023-08-30T11:52:41;96575.56;;;30.38;34.62
57086;BME280;42964;42.910;23.792;2023-08-30T11:57:43;96572.44;;;30.87;34.57
57086;BME280;42964;42.910;23.792;2023-08-30T12:02:43;96588.00;;;31.09;33.08
57086;BME280;42964;42.910;23.792;2023-08-30T12:07:42;96579.25;;;30.99;33.14
57086;BME280;42964;42.910;23.792;2023-08-30T12:12:45;96585.38;;;31.17;33.11
57086;BME280;42964;42.910;23.792;2023-08-30T12:17:44;96587.25;;;31.25;33.04
57086;BME280;42964;42.910;23.792;2023-08-30T12:22:43;96584.44;;;31.27;33.56
57086;BME280;42964;42.910;23.792;2023-08-30T12:27:42;96594.59;;;31.15;32.69
57086;BME280;42964;42.910;23.792;2023-08-30T12:32:43;96562.03;;;31.10;32.23
57086;BME280;42964;42.910;23.792;2023-08-30T12:37:42;96569.44;;;31.16;33.33
57086;BME280;42964;42.910;23.792;2023-08-30T12:42:41;96517.81;;;30.80;32.82
57086;BME280;42964;42.910;23.792;2023-08-30T12:47:40;96548.28;;;30.79;32.82
57086;BME280;42964;42.910;23.792;2023-08-30T12:52:39;96547.34;;;30.26;32.70
57086;BME280;42964;42.910;23.792;2023-08-30T12:57:38;96558.41;;;29.95;32.68
57086;BME280;42964;42.910;23.792;2023-08-30T13:02:37;96511.97;;;30.14;32.72
57086;BME280;42964;42.910;23.792;2023-08-30T13:07:36;96551.53;;;30.90;32.52
57086;BME280;42964;42.910;23.792;2023-08-30T13:12:36;96548.50;;;31.46;31.41
57086;BME280;42964;42.910;23.792;2023-08-30T13:17:35;96501.28;;;31.61;29.85
57086;BME280;42964;42.910;23.792;2023-08-30T13:22:34;96540.59;;;32.03;29.36
57086;BME280;42964;42.910;23.792;2023-08-30T13:27:33;96525.06;;;32.23;28.58
57086;BME280;42964;42.910;23.792;2023-08-30T13:32:32;96532.94;;;32.57;28.52
57086;BME280;42964;42.910;23.792;2023-08-30T13:37:32;96530.72;;;33.10;27.83
57086;BME280;42964;42.910;23.792;2023-08-30T13:42:34;96509.06;;;33.43;26.94
57086;BME280;42964;42.910;23.792;2023-08-30T13:47:34;96530.84;;;33.64;26.39
57086;BME280;42964;42.910;23.792;2023-08-30T13:52:33;96496.91;;;33.08;25.06
57086;BME280;42964;42.910;23.792;2023-08-30T13:57:32;96524.88;;;32.82;25.62
57086;BME280;42964;42.910;23.792;2023-08-30T14:02:31;96511.63;;;32.07;25.65
57086;BME280;42964;42.910;23.792;2023-08-30T14:07:31;96530.53;;;31.89;25.86
57086;BME280;42964;42.910;23.792;2023-08-30T14:12:30;96530.16;;;31.75;26.13
57086;BME280;42964;42.910;23.792;2023-08-30T14:17:29;96523.31;;;31.89;26.26
57086;BME280;42964;42.910;23.792;2023-08-30T14:22:28;96474.03;;;31.98;27.22
57086;BME280;42964;42.910;23.792;2023-08-30T14:27:27;96521.19;;;32.67;26.34
57086;BME280;42964;42.910;23.792;2023-08-30T14:32:25;96521.69;;;32.70;25.78
57086;BME280;42964;42.910;23.792;2023-08-30T14:37:24;96528.03;;;32.85;26.01
57086;BME280;42964;42.910;23.792;2023-08-30T14:42:23;96532.38;;;32.95;25.70
57086;BME280;42964;42.910;23.792;2023-08-30T14:47:22;96532.03;;;33.14;25.41
57086;BME280;42964;42.910;23.792;2023-08-30T14:52:21;96537.28;;;33.47;25.66
57086;BME280;42964;42.910;23.792;2023-08-30T14:57:21;96543.72;;;33.38;24.81
57086;BME280;42964;42.910;23.792;2023-08-30T15:02:20;96540.00;;;33.39;25.04
57086;BME280;42964;42.910;23.792;2023-08-30T15:07:19;96542.94;;;33.21;23.75
57086;BME280;42964;42.910;23.792;2023-08-30T15:12:18;96525.66;;;33.15;22.42
57086;BME280;42964;42.910;23.792;2023-08-30T15:17:17;96522.50;;;32.87;22.13
57086;BME280;42964;42.910;23.792;2023-08-30T15:22:15;96537.16;;;32.76;22.50
57086;BME280;42964;42.910;23.792;2023-08-30T15:27:14;96523.72;;;32.43;22.53
57086;BME280;42964;42.910;23.792;2023-08-30T15:32:13;96556.53;;;31.88;29.57
57086;BME280;42964;42.910;23.792;2023-08-30T15:37:12;96564.91;;;31.08;32.76
57086;BME280;42964;42.910;23.792;2023-08-30T15:42:12;96565.91;;;30.63;34.29
57086;BME280;42964;42.910;23.792;2023-08-30T15:47:10;96568.28;;;30.12;35.01
57086;BME280;42964;42.910;23.792;2023-08-30T15:52:09;96587.44;;;29.90;36.33
57086;BME280;42964;42.910;23.792;2023-08-30T15:57:08;96586.22;;;29.57;36.92
57086;BME280;42964;42.910;23.792;2023-08-30T16:02:07;96590.13;;;29.35;37.72
57086;BME280;42964;42.910;23.792;2023-08-30T16:07:06;96604.78;;;29.31;37.86
57086;BME280;42964;42.910;23.792;2023-08-30T16:12:06;96613.34;;;29.15;38.06
57086;BME280;42964;42.910;23.792;2023-08-30T16:17:05;96582.66;;;28.81;38.15
57086;BME280;42964;42.910;23.792;2023-08-30T16:22:04;96628.63;;;28.95;38.58
57086;BME280;42964;42.910;23.792;2023-08-30T16:27:04;96462.94;;;27.81;38.44
57086;BME280;42964;42.910;23.792;2023-08-30T16:32:03;96630.16;;;28.78;38.39
57086;BME280;42964;42.910;23.792;2023-08-30T16:37:02;96655.06;;;28.78;38.47
57086;BME280;42964;42.910;23.792;2023-08-30T16:42:01;96636.06;;;28.52;39.35
57086;BME280;42964;42.910;23.792;2023-08-30T16:47:00;96666.53;;;28.59;39.39
57086;BME280;42964;42.910;23.792;2023-08-30T16:51:59;96672.28;;;28.45;39.67
57086;BME280;42964;42.910;23.792;2023-08-30T16:56:58;96679.75;;;28.32;40.08
57086;BME280;42964;42.910;23.792;2023-08-30T17:01:58;96653.66;;;27.95;40.70
57086;BME280;42964;42.910;23.792;2023-08-30T17:06:57;96653.16;;;27.70;41.15
57086;BME280;42964;42.910;23.792;2023-08-30T17:11:58;96689.19;;;27.65;42.21
57086;BME280;42964;42.910;23.792;2023-08-30T17:16:57;96701.09;;;27.39;43.24
57086;BME280;42964;42.910;23.792;2023-08-30T17:21:57;96722.25;;;27.10;43.80
57086;BME280;42964;42.910;23.792;2023-08-30T17:26:56;96721.66;;;26.74;44.79
57086;BME280;42964;42.910;23.792;2023-08-30T17:31:56;96752.16;;;26.27;46.52
57086;BME280;42964;42.910;23.792;2023-08-30T17:36:55;96758.91;;;25.97;47.96
57086;BME280;42964;42.910;23.792;2023-08-30T17:41:56;96752.97;;;25.60;49.10
57086;BME280;42964;42.910;23.792;2023-08-30T17:46:56;96633.97;;;24.49;51.79
57086;BME280;42964;42.910;23.792;2023-08-30T17:51:55;96722.38;;;24.85;51.99
57086;BME280;42964;42.910;23.792;2023-08-30T17:56:54;96792.69;;;25.15;52.50
57086;BME280;42964;42.910;23.792;2023-08-30T18:01:53;96758.09;;;24.68;53.08
57086;BME280;42964;42.910;23.792;2023-08-30T18:06:52;96812.31;;;25.01;53.16
57086;BME280;42964;42.910;23.792;2023-08-30T18:11:51;96813.53;;;24.97;53.17
57086;BME280;42964;42.910;23.792;2023-08-30T18:16:50;96824.16;;;24.97;52.97
57086;BME280;42964;42.910;23.792;2023-08-30T18:21:49;96818.25;;;24.80;52.81
57086;BME280;42964;42.910;23.792;2023-08-30T18:26:49;96840.56;;;25.02;52.74
57086;BME280;42964;42.910;23.792;2023-08-30T18:31:49;96802.25;;;24.69;52.94
57086;BME280;42964;42.910;23.792;2023-08-30T18:36:48;96856.66;;;24.87;53.46
57086;BME280;42964;42.910;23.792;2023-08-30T18:41:47;96853.25;;;24.85;53.55
57086;BME280;42964;42.910;23.792;2023-08-30T18:46:46;96845.53;;;24.69;54.00
57086;BME280;42964;42.910;23.792;2023-08-30T18:57:59;96851.34;;;24.38;54.54
57086;BME280;42964;42.910;23.792;2023-08-30T19:02:57;96877.53;;;24.42;54.73
57086;BME280;42964;42.910;23.792;2023-08-30T19:07:56;96888.09;;;24.31;55.08
57086;BME280;42964;42.910;23.792;2023-08-30T19:12:56;96895.63;;;24.24;55.30
57086;BME280;42964;42.910;23.792;2023-08-30T19:17:55;96906.63;;;24.18;55.81
57086;BME280;42964;42.910;23.792;2023-08-30T19:22:54;96910.00;;;24.08;56.12
57086;BME280;42964;42.910;23.792;2023-08-30T19:27:53;96923.69;;;24.01;56.51
57086;BME280;42964;42.910;23.792;2023-08-30T19:32:52;96929.28;;;23.97;56.60
57086;BME280;42964;42.910;23.792;2023-08-30T19:37:51;96928.84;;;23.90;57.25
57086;BME280;42964;42.910;23.792;2023-08-30T19:42:50;96932.13;;;23.81;57.76
57086;BME280;42964;42.910;23.792;2023-08-30T19:47:51;96901.75;;;23.47;58.26
57086;BME280;42964;42.910;23.792;2023-08-30T19:52:50;96938.13;;;23.57;58.54
57086;BME280;42964;42.910;23.792;2023-08-30T19:57:48;96912.69;;;23.28;58.86
57086;BME280;42964;42.910;23.792;2023-08-30T20:02:47;96931.13;;;23.29;58.44
57086;BME280;42964;42.910;23.792;2023-08-30T20:07:46;96947.84;;;23.30;59.10
57086;BME280;42964;42.910;23.792;2023-08-30T20:12:46;96905.59;;;23.01;58.90
57086;BME280;42964;42.910;23.792;2023-08-30T20:17:45;96958.09;;;23.21;59.42
57086;BME280;42964;42.910;23.792;2023-08-30T20:22:44;96948.91;;;23.00;60.86
57086;BME280;42964;42.910;23.792;2023-08-30T20:27:43;96964.50;;;22.90;61.75
57086;BME280;42964;42.910;23.792;2023-08-30T20:32:42;96945.50;;;22.69;62.35
57086;BME280;42964;42.910;23.792;2023-08-30T20:37:41;96968.66;;;22.37;65.74
57086;BME280;42964;42.910;23.792;2023-08-30T20:42:40;96971.66;;;22.02;67.03
57086;BME280;42964;42.910;23.792;2023-08-30T20:47:40;96977.41;;;22.09;66.24
57086;BME280;42964;42.910;23.792;2023-08-30T20:52:39;96993.03;;;21.97;66.46
57086;BME280;42964;42.910;23.792;2023-08-30T20:57:38;96983.47;;;22.11;65.10
57086;BME280;42964;42.910;23.792;2023-08-30T21:02:37;96986.84;;;22.13;64.79
57086;BME280;42964;42.910;23.792;2023-08-30T21:07:36;96976.88;;;22.18;64.06
57086;BME280;42964;42.910;23.792;2023-08-30T21:12:35;96996.59;;;22.27;64.07
57086;BME280;42964;42.910;23.792;2023-08-30T21:17:34;97006.22;;;22.28;63.70
57086;BME280;42964;42.910;23.792;2023-08-30T21:22:33;97005.19;;;22.30;63.66
57086;BME280;42964;42.910;23.792;2023-08-30T21:27:32;96997.00;;;22.35;63.98
57086;BME280;42964;42.910;23.792;2023-08-30T21:32:31;96993.66;;;22.31;64.13
57086;BME280;42964;42.910;23.792;2023-08-30T21:37:30;96999.22;;;22.27;64.67
57086;BME280;42964;42.910;23.792;2023-08-30T21:42:29;96991.19;;;22.14;65.56
57086;BME280;42964;42.910;23.792;2023-08-30T21:47:28;96952.31;;;21.71;65.65
57086;BME280;42964;42.910;23.792;2023-08-30T21:52:28;97000.53;;;21.89;65.86
57086;BME280;42964;42.910;23.792;2023-08-30T21:57:27;97022.69;;;22.03;65.87
57086;BME280;42964;42.910;23.792;2023-08-30T22:02:26;97000.59;;;22.04;66.13
57086;BME280;42964;42.910;23.792;2023-08-30T22:07:25;97002.41;;;22.03;66.56
57086;BME280;42964;42.910;23.792;2023-08-30T22:12:24;96984.19;;;21.99;66.80
57086;BME280;42964;42.910;23.792;2023-08-30T22:17:25;96990.66;;;21.93;67.83
57086;BME280;42964;42.910;23.792;2023-08-30T22:22:25;96976.47;;;21.80;68.06
57086;BME280;42964;42.910;23.792;2023-08-30T22:27:24;97003.25;;;21.73;68.68
57086;BME280;42964;42.910;23.792;2023-08-30T22:32:23;97008.09;;;21.65;69.01
57086;BME280;42964;42.910;23.792;2023-08-30T22:37:22;96997.31;;;21.54;69.17
57086;BME280;42964;42.910;23.792;2023-08-30T22:42:21;96932.72;;;21.13;69.76
57086;BME280;42964;42.910;23.792;2023-08-30T22:47:21;96998.59;;;21.47;69.58
57086;BME280;42964;42.910;23.792;2023-08-30T22:52:22;96981.66;;;21.35;69.89
57086;BME280;42964;42.910;23.792;2023-08-30T22:57:21;96995.38;;;21.42;69.76
57086;BME280;42964;42.910;23.792;2023-08-30T23:02:22;97005.22;;;21.38;69.82
57086;BME280;42964;42.910;23.792;2023-08-30T23:07:21;96961.47;;;21.02;70.21
57086;BME280;42964;42.910;23.792;2023-08-30T23:12:20;97016.94;;;21.34;70.52
57086;BME280;42964;42.910;23.792;2023-08-30T23:17:20;97018.53;;;21.21;71.84
57086;BME280;42964;42.910;23.792;2023-08-30T23:22:19;97034.59;;;21.16;71.36
57086;BME280;42964;42.910;23.792;2023-08-30T23:27:20;97034.19;;;21.08;72.12
57086;BME280;42964;42.910;23.792;2023-08-30T23:32:19;97045.72;;;21.05;72.68
57086;BME280;42964;42.910;23.792;2023-08-30T23:37:18;97037.97;;;21.02;72.59
57086;BME280;42964;42.910;23.792;2023-08-30T23:42:17;97035.53;;;20.99;72.63
57086;BME280;42964;42.910;23.792;2023-08-30T23:47:17;97023.94;;;21.02;72.58
57086;BME280;42964;42.910;23.792;2023-08-30T23:52:16;97025.88;;;20.98;72.63
57086;BME280;42964;42.910;23.792;2023-08-30T23:57:15;97019.00;;;20.96;72.87
